Terminal Aerodrome Forecast
Issued by NWS

Home | Current Version | Previous Version | Graphics & Text | Print | Product List | Glossary On
Versions: 1 2 3 4 5 6 7 8 9 10 11 12 13
000
FTUS43 KABR 271128
TAFATY
TAF
KATY 271128Z 2712/2812 VRB06KT P6SM SKC
     FM271500 21010KT P6SM FEW070
     FM280200 23014KT P6SM VCTS SCT070CB BKN200
     FM280600 33014G23KT P6SM SKC=

USA.gov is the U.S. government's official web portal to all federal, state and local government web resources and services.